sensor_id;sensor_type;location;lat;lon;timestamp;P1;durP1;ratioP1;P2;durP2;ratioP2
13421;SDS011;6782;55.904;13.396;2024-02-23T00:00:04;14.80;;;11.67;;
13421;SDS011;6782;55.904;13.396;2024-02-23T00:02:58;13.13;;;10.57;;
13421;SDS011;6782;55.904;13.396;2024-02-23T00:05:45;14.93;;;11.27;;
13421;SDS011;6782;55.904;13.396;2024-02-23T00:08:33;10.80;;;8.90;;
13421;SDS011;6782;55.904;13.396;2024-02-23T00:11:20;9.37;;;8.37;;
13421;SDS011;6782;55.904;13.396;2024-02-23T00:14:18;9.07;;;8.17;;
13421;SDS011;6782;55.904;13.396;2024-02-23T00:17:05;8.47;;;7.57;;
13421;SDS011;6782;55.904;13.396;2024-02-23T00:19:59;9.23;;;8.27;;
13421;SDS011;6782;55.904;13.396;2024-02-23T00:22:46;8.93;;;8.03;;
13421;SDS011;6782;55.904;13.396;2024-02-23T00:25:33;9.10;;;8.20;;
13421;SDS011;6782;55.904;13.396;2024-02-23T00:28:21;9.40;;;8.50;;
13421;SDS011;6782;55.904;13.396;2024-02-23T00:31:09;9.60;;;8.60;;
13421;SDS011;6782;55.904;13.396;2024-02-23T00:33:56;8.97;;;8.07;;
13421;SDS011;6782;55.904;13.396;2024-02-23T00:36:45;9.57;;;8.13;;
13421;SDS011;6782;55.904;13.396;2024-02-23T00:39:34;8.43;;;7.63;;
13421;SDS011;6782;55.904;13.396;2024-02-23T00:42:22;8.07;;;7.37;;
13421;SDS011;6782;55.904;13.396;2024-02-23T00:45:09;7.73;;;7.03;;
13421;SDS011;6782;55.904;13.396;2024-02-23T00:47:56;7.70;;;6.97;;
13421;SDS011;6782;55.904;13.396;2024-02-23T00:50:44;10.07;;;7.80;;
13421;SDS011;6782;55.904;13.396;2024-02-23T00:53:33;8.50;;;7.70;;
13421;SDS011;6782;55.904;13.396;2024-02-23T00:56:21;8.77;;;7.93;;
13421;SDS011;6782;55.904;13.396;2024-02-23T00:59:08;10.53;;;9.13;;
13421;SDS011;6782;55.904;13.396;2024-02-23T01:01:55;10.90;;;9.80;;
13421;SDS011;6782;55.904;13.396;2024-02-23T01:04:43;11.33;;;9.60;;
13421;SDS011;6782;55.904;13.396;2024-02-23T01:07:30;11.17;;;10.07;;
13421;SDS011;6782;55.904;13.396;2024-02-23T01:10:19;12.33;;;10.20;;
13421;SDS011;6782;55.904;13.396;2024-02-23T01:13:09;13.03;;;10.67;;
13421;SDS011;6782;55.904;13.396;2024-02-23T01:15:56;11.43;;;10.23;;
13421;SDS011;6782;55.904;13.396;2024-02-23T01:18:44;10.77;;;9.70;;
13421;SDS011;6782;55.904;13.396;2024-02-23T01:21:33;11.07;;;9.63;;
13421;SDS011;6782;55.904;13.396;2024-02-23T01:24:23;10.87;;;9.77;;
13421;SDS011;6782;55.904;13.396;2024-02-23T01:27:14;11.70;;;10.23;;
13421;SDS011;6782;55.904;13.396;2024-02-23T01:30:03;10.60;;;9.60;;
13421;SDS011;6782;55.904;13.396;2024-02-23T01:32:51;10.13;;;9.13;;
13421;SDS011;6782;55.904;13.396;2024-02-23T01:35:39;9.00;;;8.10;;
13421;SDS011;6782;55.904;13.396;2024-02-23T01:38:27;7.63;;;6.97;;
13421;SDS011;6782;55.904;13.396;2024-02-23T01:41:17;7.90;;;7.13;;
13421;SDS011;6782;55.904;13.396;2024-02-23T01:44:07;7.60;;;6.90;;
13421;SDS011;6782;55.904;13.396;2024-02-23T01:46:54;6.97;;;6.37;;
13421;SDS011;6782;55.904;13.396;2024-02-23T01:49:43;6.67;;;5.77;;
13421;SDS011;6782;55.904;13.396;2024-02-23T01:52:32;6.63;;;6.03;;
13421;SDS011;6782;55.904;13.396;2024-02-23T01:55:19;6.10;;;5.57;;
13421;SDS011;6782;55.904;13.396;2024-02-23T01:58:07;6.00;;;5.50;;
13421;SDS011;6782;55.904;13.396;2024-02-23T02:00:57;6.17;;;5.57;;
13421;SDS011;6782;55.904;13.396;2024-02-23T02:03:44;6.10;;;5.60;;
13421;SDS011;6782;55.904;13.396;2024-02-23T02:06:33;6.10;;;5.50;;
13421;SDS011;6782;55.904;13.396;2024-02-23T02:09:22;6.87;;;6.23;;
13421;SDS011;6782;55.904;13.396;2024-02-23T02:12:10;6.60;;;6.00;;
13421;SDS011;6782;55.904;13.396;2024-02-23T02:14:57;7.50;;;6.90;;
13421;SDS011;6782;55.904;13.396;2024-02-23T02:17:48;8.17;;;7.37;;
13421;SDS011;6782;55.904;13.396;2024-02-23T02:20:36;8.50;;;7.80;;
13421;SDS011;6782;55.904;13.396;2024-02-23T02:23:25;8.90;;;8.03;;
13421;SDS011;6782;55.904;13.396;2024-02-23T02:26:13;8.60;;;7.80;;
13421;SDS011;6782;55.904;13.396;2024-02-23T02:29:00;8.30;;;7.60;;
13421;SDS011;6782;55.904;13.396;2024-02-23T02:31:52;7.47;;;6.80;;
13421;SDS011;6782;55.904;13.396;2024-02-23T02:34:41;6.70;;;6.10;;
13421;SDS011;6782;55.904;13.396;2024-02-23T02:37:29;5.63;;;5.13;;
13421;SDS011;6782;55.904;13.396;2024-02-23T02:40:17;5.73;;;4.97;;
13421;SDS011;6782;55.904;13.396;2024-02-23T02:43:06;4.83;;;4.43;;
13421;SDS011;6782;55.904;13.396;2024-02-23T02:45:54;4.70;;;4.30;;
13421;SDS011;6782;55.904;13.396;2024-02-23T02:48:42;4.63;;;4.10;;
13421;SDS011;6782;55.904;13.396;2024-02-23T02:51:31;4.03;;;3.63;;
13421;SDS011;6782;55.904;13.396;2024-02-23T02:54:19;4.20;;;3.80;;
13421;SDS011;6782;55.904;13.396;2024-02-23T02:57:06;3.53;;;3.23;;
13421;SDS011;6782;55.904;13.396;2024-02-23T02:59:53;3.20;;;2.90;;
13421;SDS011;6782;55.904;13.396;2024-02-23T03:02:41;3.47;;;2.73;;
13421;SDS011;6782;55.904;13.396;2024-02-23T03:05:29;3.83;;;2.40;;
13421;SDS011;6782;55.904;13.396;2024-02-23T03:08:21;3.30;;;2.37;;
13421;SDS011;6782;55.904;13.396;2024-02-23T03:11:09;3.97;;;2.00;;
13421;SDS011;6782;55.904;13.396;2024-02-23T03:13:57;2.83;;;1.90;;
13421;SDS011;6782;55.904;13.396;2024-02-23T03:16:45;2.73;;;1.73;;
13421;SDS011;6782;55.904;13.396;2024-02-23T03:19:34;5.97;;;2.00;;
13421;SDS011;6782;55.904;13.396;2024-02-23T03:22:22;2.77;;;1.40;;
13421;SDS011;6782;55.904;13.396;2024-02-23T03:25:11;3.43;;;1.67;;
13421;SDS011;6782;55.904;13.396;2024-02-23T03:27:58;3.77;;;1.70;;
13421;SDS011;6782;55.904;13.396;2024-02-23T03:30:53;3.17;;;1.20;;
13421;SDS011;6782;55.904;13.396;2024-02-23T03:33:41;2.53;;;1.23;;
13421;SDS011;6782;55.904;13.396;2024-02-23T03:36:29;2.23;;;1.27;;
13421;SDS011;6782;55.904;13.396;2024-02-23T03:39:16;3.67;;;1.40;;
13421;SDS011;6782;55.904;13.396;2024-02-23T03:42:06;2.93;;;1.00;;
13421;SDS011;6782;55.904;13.396;2024-02-23T03:44:53;2.87;;;1.10;;
13421;SDS011;6782;55.904;13.396;2024-02-23T03:47:41;2.20;;;1.13;;
13421;SDS011;6782;55.904;13.396;2024-02-23T03:50:29;2.53;;;1.17;;
13421;SDS011;6782;55.904;13.396;2024-02-23T03:53:16;4.63;;;1.20;;
13421;SDS011;6782;55.904;13.396;2024-02-23T03:56:04;2.37;;;1.00;;
13421;SDS011;6782;55.904;13.396;2024-02-23T03:58:53;0.70;;;0.70;;
13421;SDS011;6782;55.904;13.396;2024-02-23T04:01:41;2.93;;;1.00;;
13421;SDS011;6782;55.904;13.396;2024-02-23T04:04:29;2.13;;;1.10;;
13421;SDS011;6782;55.904;13.396;2024-02-23T04:07:17;2.50;;;0.90;;
13421;SDS011;6782;55.904;13.396;2024-02-23T04:10:05;2.43;;;0.93;;
13421;SDS011;6782;55.904;13.396;2024-02-23T04:12:55;1.93;;;0.93;;
13421;SDS011;6782;55.904;13.396;2024-02-23T04:15:44;2.93;;;1.03;;
13421;SDS011;6782;55.904;13.396;2024-02-23T04:18:32;3.97;;;1.00;;
13421;SDS011;6782;55.904;13.396;2024-02-23T04:21:21;4.67;;;1.10;;
13421;SDS011;6782;55.904;13.396;2024-02-23T04:24:08;2.17;;;0.97;;
13421;SDS011;6782;55.904;13.396;2024-02-23T04:26:56;2.30;;;1.10;;
13421;SDS011;6782;55.904;13.396;2024-02-23T04:29:43;4.27;;;1.10;;
13421;SDS011;6782;55.904;13.396;2024-02-23T04:32:32;3.30;;;1.20;;
13421;SDS011;6782;55.904;13.396;2024-02-23T04:35:19;4.80;;;1.00;;
13421;SDS011;6782;55.904;13.396;2024-02-23T04:38:07;3.73;;;1.20;;
13421;SDS011;6782;55.904;13.396;2024-02-23T04:40:55;4.40;;;1.17;;
13421;SDS011;6782;55.904;13.396;2024-02-23T04:43:42;2.77;;;1.10;;
13421;SDS011;6782;55.904;13.396;2024-02-23T04:46:30;1.73;;;1.13;;
13421;SDS011;6782;55.904;13.396;2024-02-23T04:49:21;4.53;;;1.13;;
13421;SDS011;6782;55.904;13.396;2024-02-23T04:52:08;4.13;;;1.23;;
13421;SDS011;6782;55.904;13.396;2024-02-23T04:54:55;2.77;;;0.83;;
13421;SDS011;6782;55.904;13.396;2024-02-23T04:57:43;3.33;;;1.27;;
13421;SDS011;6782;55.904;13.396;2024-02-23T05:00:30;2.87;;;1.10;;
13421;SDS011;6782;55.904;13.396;2024-02-23T05:03:19;2.60;;;1.10;;
13421;SDS011;6782;55.904;13.396;2024-02-23T05:06:10;3.17;;;1.20;;
13421;SDS011;6782;55.904;13.396;2024-02-23T05:08:58;2.47;;;1.20;;
13421;SDS011;6782;55.904;13.396;2024-02-23T05:11:45;3.83;;;1.10;;
13421;SDS011;6782;55.904;13.396;2024-02-23T05:14:33;3.00;;;1.07;;
13421;SDS011;6782;55.904;13.396;2024-02-23T05:17:21;3.37;;;1.17;;
13421;SDS011;6782;55.904;13.396;2024-02-23T05:20:12;3.70;;;1.30;;
13421;SDS011;6782;55.904;13.396;2024-02-23T05:23:02;2.67;;;0.90;;
13421;SDS011;6782;55.904;13.396;2024-02-23T05:25:49;3.87;;;1.13;;
13421;SDS011;6782;55.904;13.396;2024-02-23T05:28:37;3.10;;;1.20;;
13421;SDS011;6782;55.904;13.396;2024-02-23T05:31:43;2.80;;;1.13;;
13421;SDS011;6782;55.904;13.396;2024-02-23T05:34:32;3.43;;;1.30;;
13421;SDS011;6782;55.904;13.396;2024-02-23T05:37:20;3.07;;;1.40;;
13421;SDS011;6782;55.904;13.396;2024-02-23T05:40:12;4.00;;;1.30;;
13421;SDS011;6782;55.904;13.396;2024-02-23T05:42:59;6.57;;;1.50;;
13421;SDS011;6782;55.904;13.396;2024-02-23T05:45:47;3.67;;;1.30;;
13421;SDS011;6782;55.904;13.396;2024-02-23T05:48:35;3.00;;;1.10;;
13421;SDS011;6782;55.904;13.396;2024-02-23T05:51:22;2.90;;;1.30;;
13421;SDS011;6782;55.904;13.396;2024-02-23T05:54:10;5.00;;;1.47;;
13421;SDS011;6782;55.904;13.396;2024-02-23T05:56:58;4.10;;;1.60;;
13421;SDS011;6782;55.904;13.396;2024-02-23T05:59:46;5.63;;;1.70;;
13421;SDS011;6782;55.904;13.396;2024-02-23T06:02:33;5.03;;;1.40;;
13421;SDS011;6782;55.904;13.396;2024-02-23T06:05:21;3.93;;;1.70;;
13421;SDS011;6782;55.904;13.396;2024-02-23T06:08:09;3.67;;;1.60;;
13421;SDS011;6782;55.904;13.396;2024-02-23T06:10:56;4.07;;;1.40;;
13421;SDS011;6782;55.904;13.396;2024-02-23T06:13:49;3.37;;;1.60;;
13421;SDS011;6782;55.904;13.396;2024-02-23T06:16:38;4.83;;;1.67;;
13421;SDS011;6782;55.904;13.396;2024-02-23T06:19:26;5.43;;;1.73;;
13421;SDS011;6782;55.904;13.396;2024-02-23T06:22:14;9.63;;;2.10;;
13421;SDS011;6782;55.904;13.396;2024-02-23T06:25:06;6.77;;;2.10;;
13421;SDS011;6782;55.904;13.396;2024-02-23T06:27:55;4.30;;;2.00;;
13421;SDS011;6782;55.904;13.396;2024-02-23T06:30:46;5.20;;;1.93;;
13421;SDS011;6782;55.904;13.396;2024-02-23T06:33:34;5.93;;;2.23;;
13421;SDS011;6782;55.904;13.396;2024-02-23T06:36:21;6.60;;;2.07;;
13421;SDS011;6782;55.904;13.396;2024-02-23T06:39:08;9.00;;;2.40;;
13421;SDS011;6782;55.904;13.396;2024-02-23T06:41:57;6.30;;;2.30;;
13421;SDS011;6782;55.904;13.396;2024-02-23T06:44:46;9.37;;;2.57;;
13421;SDS011;6782;55.904;13.396;2024-02-23T06:47:37;5.37;;;1.90;;
13421;SDS011;6782;55.904;13.396;2024-02-23T06:50:25;5.73;;;2.30;;
13421;SDS011;6782;55.904;13.396;2024-02-23T06:53:12;3.87;;;1.67;;
13421;SDS011;6782;55.904;13.396;2024-02-23T06:55:59;7.03;;;2.17;;
13421;SDS011;6782;55.904;13.396;2024-02-23T06:58:47;8.10;;;2.03;;
13421;SDS011;6782;55.904;13.396;2024-02-23T07:01:35;6.40;;;2.20;;
13421;SDS011;6782;55.904;13.396;2024-02-23T07:04:24;7.40;;;1.90;;
13421;SDS011;6782;55.904;13.396;2024-02-23T07:07:12;6.13;;;2.20;;
13421;SDS011;6782;55.904;13.396;2024-02-23T07:09:59;5.93;;;1.80;;
13421;SDS011;6782;55.904;13.396;2024-02-23T07:12:47;4.10;;;1.80;;
13421;SDS011;6782;55.904;13.396;2024-02-23T07:15:38;8.00;;;1.90;;
13421;SDS011;6782;55.904;13.396;2024-02-23T07:18:27;5.87;;;1.93;;
13421;SDS011;6782;55.904;13.396;2024-02-23T07:21:18;7.53;;;2.10;;
13421;SDS011;6782;55.904;13.396;2024-02-23T07:24:05;6.43;;;2.03;;
13421;SDS011;6782;55.904;13.396;2024-02-23T07:26:53;7.30;;;1.90;;
13421;SDS011;6782;55.904;13.396;2024-02-23T07:29:41;5.53;;;2.10;;
13421;SDS011;6782;55.904;13.396;2024-02-23T07:32:29;6.97;;;1.90;;
13421;SDS011;6782;55.904;13.396;2024-02-23T07:35:17;8.00;;;2.30;;
13421;SDS011;6782;55.904;13.396;2024-02-23T07:38:05;6.87;;;2.07;;
13421;SDS011;6782;55.904;13.396;2024-02-23T07:40:53;6.97;;;2.23;;
13421;SDS011;6782;55.904;13.396;2024-02-23T07:43:41;5.07;;;1.87;;
13421;SDS011;6782;55.904;13.396;2024-02-23T07:46:29;5.63;;;2.10;;
13421;SDS011;6782;55.904;13.396;2024-02-23T07:49:16;7.57;;;2.10;;
13421;SDS011;6782;55.904;13.396;2024-02-23T07:52:05;8.23;;;2.07;;
13421;SDS011;6782;55.904;13.396;2024-02-23T07:54:54;5.20;;;2.20;;
13421;SDS011;6782;55.904;13.396;2024-02-23T07:57:41;5.27;;;1.80;;
13421;SDS011;6782;55.904;13.396;2024-02-23T08:00:28;6.00;;;2.00;;
13421;SDS011;6782;55.904;13.396;2024-02-23T08:03:16;5.73;;;1.70;;
13421;SDS011;6782;55.904;13.396;2024-02-23T08:06:03;5.60;;;1.70;;
13421;SDS011;6782;55.904;13.396;2024-02-23T08:08:51;6.37;;;1.70;;
13421;SDS011;6782;55.904;13.396;2024-02-23T08:11:40;5.80;;;1.93;;
13421;SDS011;6782;55.904;13.396;2024-02-23T08:14:28;7.17;;;1.97;;
13421;SDS011;6782;55.904;13.396;2024-02-23T08:17:15;6.10;;;2.20;;
13421;SDS011;6782;55.904;13.396;2024-02-23T08:20:02;6.53;;;2.23;;
13421;SDS011;6782;55.904;13.396;2024-02-23T08:22:51;6.07;;;2.40;;
13421;SDS011;6782;55.904;13.396;2024-02-23T08:25:38;5.50;;;1.90;;
13421;SDS011;6782;55.904;13.396;2024-02-23T08:28:27;7.50;;;2.30;;
13421;SDS011;6782;55.904;13.396;2024-02-23T08:31:15;7.97;;;2.13;;
13421;SDS011;6782;55.904;13.396;2024-02-23T08:34:02;6.97;;;2.30;;
13421;SDS011;6782;55.904;13.396;2024-02-23T08:36:50;6.83;;;2.40;;
13421;SDS011;6782;55.904;13.396;2024-02-23T08:39:37;7.33;;;2.30;;
13421;SDS011;6782;55.904;13.396;2024-02-23T08:42:24;8.30;;;2.70;;
13421;SDS011;6782;55.904;13.396;2024-02-23T08:45:14;9.30;;;2.70;;
13421;SDS011;6782;55.904;13.396;2024-02-23T08:48:02;6.03;;;2.90;;
13421;SDS011;6782;55.904;13.396;2024-02-23T08:50:50;6.47;;;2.77;;
13421;SDS011;6782;55.904;13.396;2024-02-23T08:53:38;11.80;;;3.17;;
13421;SDS011;6782;55.904;13.396;2024-02-23T08:56:25;7.23;;;2.90;;
13421;SDS011;6782;55.904;13.396;2024-02-23T08:59:14;5.97;;;2.73;;
13421;SDS011;6782;55.904;13.396;2024-02-23T09:02:05;7.17;;;2.53;;
13421;SDS011;6782;55.904;13.396;2024-02-23T09:04:52;9.93;;;2.73;;
13421;SDS011;6782;55.904;13.396;2024-02-23T09:07:40;6.00;;;2.10;;
13421;SDS011;6782;55.904;13.396;2024-02-23T09:10:27;6.67;;;1.90;;
13421;SDS011;6782;55.904;13.396;2024-02-23T09:13:15;5.57;;;2.20;;
13421;SDS011;6782;55.904;13.396;2024-02-23T09:16:03;7.93;;;2.20;;
13421;SDS011;6782;55.904;13.396;2024-02-23T09:18:56;6.90;;;2.47;;
13421;SDS011;6782;55.904;13.396;2024-02-23T09:21:43;7.80;;;2.43;;
13421;SDS011;6782;55.904;13.396;2024-02-23T09:24:31;5.23;;;2.13;;
13421;SDS011;6782;55.904;13.396;2024-02-23T09:27:20;5.90;;;2.17;;
13421;SDS011;6782;55.904;13.396;2024-02-23T09:30:07;8.40;;;1.80;;
13421;SDS011;6782;55.904;13.396;2024-02-23T09:32:55;6.77;;;2.60;;
13421;SDS011;6782;55.904;13.396;2024-02-23T09:35:44;5.67;;;1.97;;
13421;SDS011;6782;55.904;13.396;2024-02-23T09:38:31;7.13;;;2.40;;
13421;SDS011;6782;55.904;13.396;2024-02-23T09:41:19;4.43;;;2.00;;
13421;SDS011;6782;55.904;13.396;2024-02-23T09:44:07;7.13;;;2.60;;
13421;SDS011;6782;55.904;13.396;2024-02-23T09:46:55;6.57;;;2.13;;
13421;SDS011;6782;55.904;13.396;2024-02-23T09:49:43;7.10;;;2.30;;
13421;SDS011;6782;55.904;13.396;2024-02-23T09:52:37;5.87;;;2.13;;
13421;SDS011;6782;55.904;13.396;2024-02-23T09:55:24;6.93;;;2.10;;
13421;SDS011;6782;55.904;13.396;2024-02-23T09:58:11;6.90;;;2.00;;
13421;SDS011;6782;55.904;13.396;2024-02-23T10:01:02;7.60;;;2.50;;
13421;SDS011;6782;55.904;13.396;2024-02-23T10:03:50;4.30;;;1.90;;
13421;SDS011;6782;55.904;13.396;2024-02-23T10:06:38;5.93;;;1.93;;
13421;SDS011;6782;55.904;13.396;2024-02-23T10:09:27;6.37;;;2.00;;
13421;SDS011;6782;55.904;13.396;2024-02-23T10:12:15;8.17;;;2.13;;
13421;SDS011;6782;55.904;13.396;2024-02-23T10:15:04;3.37;;;1.90;;
13421;SDS011;6782;55.904;13.396;2024-02-23T10:17:52;4.77;;;1.60;;
13421;SDS011;6782;55.904;13.396;2024-02-23T10:20:41;6.03;;;2.40;;
13421;SDS011;6782;55.904;13.396;2024-02-23T10:23:29;5.67;;;2.13;;
13421;SDS011;6782;55.904;13.396;2024-02-23T10:26:18;5.57;;;2.00;;
13421;SDS011;6782;55.904;13.396;2024-02-23T10:29:08;5.50;;;1.77;;
13421;SDS011;6782;55.904;13.396;2024-02-23T10:31:56;5.03;;;1.90;;
13421;SDS011;6782;55.904;13.396;2024-02-23T10:34:44;5.60;;;2.20;;
13421;SDS011;6782;55.904;13.396;2024-02-23T10:37:40;6.50;;;1.90;;
13421;SDS011;6782;55.904;13.396;2024-02-23T10:40:29;4.20;;;2.00;;
13421;SDS011;6782;55.904;13.396;2024-02-23T10:43:21;4.17;;;1.70;;
13421;SDS011;6782;55.904;13.396;2024-02-23T10:46:16;3.83;;;1.73;;
13421;SDS011;6782;55.904;13.396;2024-02-23T10:49:06;4.50;;;1.60;;
13421;SDS011;6782;55.904;13.396;2024-02-23T10:51:54;3.60;;;1.57;;
13421;SDS011;6782;55.904;13.396;2024-02-23T10:54:43;3.57;;;1.13;;
13421;SDS011;6782;55.904;13.396;2024-02-23T10:57:34;2.47;;;1.37;;
13421;SDS011;6782;55.904;13.396;2024-02-23T11:00:23;2.03;;;1.00;;
13421;SDS011;6782;55.904;13.396;2024-02-23T11:03:11;2.60;;;1.00;;
13421;SDS011;6782;55.904;13.396;2024-02-23T11:05:59;5.27;;;1.40;;
13421;SDS011;6782;55.904;13.396;2024-02-23T11:08:47;2.60;;;1.47;;
13421;SDS011;6782;55.904;13.396;2024-02-23T11:11:34;4.33;;;1.47;;
13421;SDS011;6782;55.904;13.396;2024-02-23T11:14:30;3.43;;;1.50;;
13421;SDS011;6782;55.904;13.396;2024-02-23T11:17:21;2.97;;;1.37;;
13421;SDS011;6782;55.904;13.396;2024-02-23T11:20:09;3.23;;;1.40;;
13421;SDS011;6782;55.904;13.396;2024-02-23T11:23:01;3.90;;;1.30;;
13421;SDS011;6782;55.904;13.396;2024-02-23T11:25:59;3.37;;;1.70;;
13421;SDS011;6782;55.904;13.396;2024-02-23T11:28:51;4.87;;;1.90;;
13421;SDS011;6782;55.904;13.396;2024-02-23T11:31:44;3.97;;;1.80;;
13421;SDS011;6782;55.904;13.396;2024-02-23T11:34:36;4.07;;;1.57;;
13421;SDS011;6782;55.904;13.396;2024-02-23T11:37:24;3.23;;;1.67;;
13421;SDS011;6782;55.904;13.396;2024-02-23T11:40:15;5.40;;;2.00;;
13421;SDS011;6782;55.904;13.396;2024-02-23T11:43:04;6.00;;;1.80;;
13421;SDS011;6782;55.904;13.396;2024-02-23T11:45:52;5.13;;;1.67;;
13421;SDS011;6782;55.904;13.396;2024-02-23T11:48:40;4.30;;;1.53;;
13421;SDS011;6782;55.904;13.396;2024-02-23T11:51:28;3.47;;;1.63;;
13421;SDS011;6782;55.904;13.396;2024-02-23T11:54:16;3.17;;;1.57;;
13421;SDS011;6782;55.904;13.396;2024-02-23T11:57:04;4.97;;;1.67;;
13421;SDS011;6782;55.904;13.396;2024-02-23T11:59:51;6.77;;;1.93;;
13421;SDS011;6782;55.904;13.396;2024-02-23T12:02:39;4.10;;;1.70;;
13421;SDS011;6782;55.904;13.396;2024-02-23T12:05:26;3.40;;;1.73;;
13421;SDS011;6782;55.904;13.396;2024-02-23T12:08:15;6.30;;;1.87;;
13421;SDS011;6782;55.904;13.396;2024-02-23T12:11:03;5.77;;;1.60;;
13421;SDS011;6782;55.904;13.396;2024-02-23T12:13:53;6.43;;;1.90;;
13421;SDS011;6782;55.904;13.396;2024-02-23T12:16:42;6.40;;;2.30;;
13421;SDS011;6782;55.904;13.396;2024-02-23T12:19:30;4.43;;;1.80;;
13421;SDS011;6782;55.904;13.396;2024-02-23T12:22:17;6.37;;;2.13;;
13421;SDS011;6782;55.904;13.396;2024-02-23T12:25:07;3.27;;;1.73;;
13421;SDS011;6782;55.904;13.396;2024-02-23T12:27:54;5.30;;;2.20;;
13421;SDS011;6782;55.904;13.396;2024-02-23T12:30:42;3.77;;;1.47;;
13421;SDS011;6782;55.904;13.396;2024-02-23T12:33:32;2.43;;;1.47;;
13421;SDS011;6782;55.904;13.396;2024-02-23T12:36:20;2.90;;;1.43;;
13421;SDS011;6782;55.904;13.396;2024-02-23T12:39:10;4.77;;;2.00;;
13421;SDS011;6782;55.904;13.396;2024-02-23T12:41:59;7.27;;;2.10;;
13421;SDS011;6782;55.904;13.396;2024-02-23T12:44:46;8.10;;;2.03;;
13421;SDS011;6782;55.904;13.396;2024-02-23T12:47:36;6.77;;;2.23;;
13421;SDS011;6782;55.904;13.396;2024-02-23T12:50:24;5.97;;;2.00;;
13421;SDS011;6782;55.904;13.396;2024-02-23T12:53:12;6.70;;;2.43;;
13421;SDS011;6782;55.904;13.396;2024-02-23T12:56:17;4.37;;;2.20;;
13421;SDS011;6782;55.904;13.396;2024-02-23T12:59:07;8.10;;;2.40;;
13421;SDS011;6782;55.904;13.396;2024-02-23T13:01:56;6.60;;;2.20;;
13421;SDS011;6782;55.904;13.396;2024-02-23T13:04:43;6.70;;;2.30;;
13421;SDS011;6782;55.904;13.396;2024-02-23T13:07:34;3.80;;;2.10;;
13421;SDS011;6782;55.904;13.396;2024-02-23T13:10:24;6.27;;;2.37;;
13421;SDS011;6782;55.904;13.396;2024-02-23T13:13:11;5.30;;;2.10;;
13421;SDS011;6782;55.904;13.396;2024-02-23T13:16:01;6.77;;;2.50;;
13421;SDS011;6782;55.904;13.396;2024-02-23T13:18:49;4.30;;;2.17;;
13421;SDS011;6782;55.904;13.396;2024-02-23T13:21:36;7.23;;;2.10;;
13421;SDS011;6782;55.904;13.396;2024-02-23T13:24:24;6.10;;;2.17;;
13421;SDS011;6782;55.904;13.396;2024-02-23T13:27:12;4.47;;;1.83;;
13421;SDS011;6782;55.904;13.396;2024-02-23T13:30:00;4.03;;;1.80;;
13421;SDS011;6782;55.904;13.396;2024-02-23T13:32:50;4.07;;;1.90;;
13421;SDS011;6782;55.904;13.396;2024-02-23T13:35:38;4.20;;;1.80;;
13421;SDS011;6782;55.904;13.396;2024-02-23T13:38:26;3.75;;;1.80;;
13421;SDS011;6782;55.904;13.396;2024-02-23T13:41:13;3.90;;;1.70;;
13421;SDS011;6782;55.904;13.396;2024-02-23T13:44:00;3.80;;;1.97;;
13421;SDS011;6782;55.904;13.396;2024-02-23T13:46:48;5.33;;;1.80;;
13421;SDS011;6782;55.904;13.396;2024-02-23T13:49:38;3.93;;;1.70;;
13421;SDS011;6782;55.904;13.396;2024-02-23T13:52:25;2.50;;;1.50;;
13421;SDS011;6782;55.904;13.396;2024-02-23T13:55:13;4.70;;;1.93;;
13421;SDS011;6782;55.904;13.396;2024-02-23T13:58:00;4.50;;;1.93;;
13421;SDS011;6782;55.904;13.396;2024-02-23T14:00:49;3.57;;;1.60;;
13421;SDS011;6782;55.904;13.396;2024-02-23T14:03:37;5.77;;;2.20;;
13421;SDS011;6782;55.904;13.396;2024-02-23T14:06:27;5.57;;;1.93;;
13421;SDS011;6782;55.904;13.396;2024-02-23T14:09:14;4.73;;;1.77;;
13421;SDS011;6782;55.904;13.396;2024-02-23T14:12:02;5.40;;;2.10;;
13421;SDS011;6782;55.904;13.396;2024-02-23T14:14:50;4.20;;;2.03;;
13421;SDS011;6782;55.904;13.396;2024-02-23T14:17:37;6.37;;;2.20;;
13421;SDS011;6782;55.904;13.396;2024-02-23T14:20:25;2.87;;;1.60;;
13421;SDS011;6782;55.904;13.396;2024-02-23T14:23:15;3.57;;;1.90;;
13421;SDS011;6782;55.904;13.396;2024-02-23T14:26:02;4.07;;;1.87;;
13421;SDS011;6782;55.904;13.396;2024-02-23T14:28:50;4.27;;;2.00;;
13421;SDS011;6782;55.904;13.396;2024-02-23T14:31:37;5.33;;;2.07;;
13421;SDS011;6782;55.904;13.396;2024-02-23T14:34:27;5.27;;;1.87;;
13421;SDS011;6782;55.904;13.396;2024-02-23T14:37:15;5.47;;;1.90;;
13421;SDS011;6782;55.904;13.396;2024-02-23T14:40:05;5.97;;;2.40;;
13421;SDS011;6782;55.904;13.396;2024-02-23T14:42:53;6.20;;;1.93;;
13421;SDS011;6782;55.904;13.396;2024-02-23T14:45:41;4.33;;;2.50;;
13421;SDS011;6782;55.904;13.396;2024-02-23T14:48:30;3.80;;;2.03;;
13421;SDS011;6782;55.904;13.396;2024-02-23T14:51:18;6.70;;;2.07;;
13421;SDS011;6782;55.904;13.396;2024-02-23T14:54:05;7.17;;;2.17;;
13421;SDS011;6782;55.904;13.396;2024-02-23T14:56:56;6.53;;;2.10;;
13421;SDS011;6782;55.904;13.396;2024-02-23T14:59:43;3.77;;;1.90;;
13421;SDS011;6782;55.904;13.396;2024-02-23T15:02:33;4.57;;;2.00;;
13421;SDS011;6782;55.904;13.396;2024-02-23T15:05:21;4.73;;;2.17;;
13421;SDS011;6782;55.904;13.396;2024-02-23T15:08:08;7.63;;;2.07;;
13421;SDS011;6782;55.904;13.396;2024-02-23T15:10:56;5.73;;;1.90;;
13421;SDS011;6782;55.904;13.396;2024-02-23T15:13:47;2.83;;;1.73;;
13421;SDS011;6782;55.904;13.396;2024-02-23T15:16:48;3.67;;;1.70;;
13421;SDS011;6782;55.904;13.396;2024-02-23T15:19:36;5.27;;;1.93;;
13421;SDS011;6782;55.904;13.396;2024-02-23T15:22:23;6.60;;;1.93;;
13421;SDS011;6782;55.904;13.396;2024-02-23T15:25:11;5.00;;;1.90;;
13421;SDS011;6782;55.904;13.396;2024-02-23T15:27:59;5.57;;;1.70;;
13421;SDS011;6782;55.904;13.396;2024-02-23T15:30:48;5.93;;;1.80;;
13421;SDS011;6782;55.904;13.396;2024-02-23T15:33:37;4.30;;;1.93;;
13421;SDS011;6782;55.904;13.396;2024-02-23T15:36:26;5.63;;;2.27;;
13421;SDS011;6782;55.904;13.396;2024-02-23T15:39:13;5.47;;;2.00;;
13421;SDS011;6782;55.904;13.396;2024-02-23T15:42:00;7.37;;;2.50;;
13421;SDS011;6782;55.904;13.396;2024-02-23T15:44:49;4.67;;;2.57;;
13421;SDS011;6782;55.904;13.396;2024-02-23T15:47:38;6.77;;;2.33;;
13421;SDS011;6782;55.904;13.396;2024-02-23T15:50:25;6.30;;;2.30;;
13421;SDS011;6782;55.904;13.396;2024-02-23T15:53:13;7.53;;;2.20;;
13421;SDS011;6782;55.904;13.396;2024-02-23T15:56:01;6.50;;;2.47;;
13421;SDS011;6782;55.904;13.396;2024-02-23T15:58:49;7.67;;;2.20;;
13421;SDS011;6782;55.904;13.396;2024-02-23T16:01:37;5.67;;;2.47;;
13421;SDS011;6782;55.904;13.396;2024-02-23T16:04:28;4.73;;;2.20;;
13421;SDS011;6782;55.904;13.396;2024-02-23T16:07:15;8.23;;;2.20;;
13421;SDS011;6782;55.904;13.396;2024-02-23T16:10:03;6.23;;;2.23;;
13421;SDS011;6782;55.904;13.396;2024-02-23T16:12:52;6.43;;;2.37;;
13421;SDS011;6782;55.904;13.396;2024-02-23T16:15:39;5.47;;;2.27;;
13421;SDS011;6782;55.904;13.396;2024-02-23T16:18:27;3.77;;;1.80;;
13421;SDS011;6782;55.904;13.396;2024-02-23T16:21:16;4.07;;;2.00;;
13421;SDS011;6782;55.904;13.396;2024-02-23T16:24:04;7.23;;;2.00;;
13421;SDS011;6782;55.904;13.396;2024-02-23T16:26:53;6.67;;;2.40;;
13421;SDS011;6782;55.904;13.396;2024-02-23T16:29:41;5.97;;;2.23;;
13421;SDS011;6782;55.904;13.396;2024-02-23T16:32:28;5.33;;;2.33;;
13421;SDS011;6782;55.904;13.396;2024-02-23T16:35:16;5.60;;;2.50;;
13421;SDS011;6782;55.904;13.396;2024-02-23T16:38:07;4.83;;;2.10;;
13421;SDS011;6782;55.904;13.396;2024-02-23T16:40:55;3.30;;;1.67;;
13421;SDS011;6782;55.904;13.396;2024-02-23T16:43:43;6.03;;;2.47;;
13421;SDS011;6782;55.904;13.396;2024-02-23T16:46:30;7.33;;;2.43;;
13421;SDS011;6782;55.904;13.396;2024-02-23T16:49:18;7.63;;;2.40;;
13421;SDS011;6782;55.904;13.396;2024-02-23T16:52:05;7.73;;;2.63;;